Odin, MN

5:41 PM CST on January 25, 2015 (GMT -0600)
NuWay Coop - Trimont | Change Station
CLOSE
Current Station
Personal Weather Station
Location: Trimont, MN
Elevation: 1220 ft
Nearby Weather Stations

Elev 1220 ft 43.76 °N, 94.72 °W | Updated 8 minutes ago

Overcast
Overcast
28.1 °F
Feels Like 28 °F
N
2.0
Wind Variable Wind from NNE
Gusts 5.0 mph

Today
High -- | Low -- °F
--% Chance of Precip.
Yesterday
High -- | Low -- °F
Precip. -- in
7:43 AM 5:20 PM
Waxing Crescent, 37% visible
Pressure 30.05 in
Visibility 10.0 miles
Clouds Overcast 1900 ft
Windchill 28 °F
Dew Point 25 °F
Humidity 89%
Rainfall 0.02 in
Snow Depth Not available.
UV 0 out of 12
Pollen .10 out of 12
Air Quality Not available.
Flu Activity Not available.
METAR KJYG 252138Z AUTO 32009KT 10SM OVC019 M02/M04 A3005 RMK AO2

More Conditions Fewer Conditions

Pressure 30.05 in
Visibility 10.0 miles
Clouds Overcast 1900 ft
Windchill 28 °F
Dew Point 25 °F
Humidity 89%
Rainfall 0.02 in
Snow Depth Not available.
UV 0 out of 12
Pollen .10 out of 12
Air Quality Not available.
Flu Activity Not available.
METAR KJYG 252138Z AUTO 32009KT 10SM OVC019 M02/M04 A3005 RMK AO2

More Conditions Fewer Conditions

10-Day Weather Forecast

Almanac

Astronomy

Jan. 25, 2015 Rise Set
Actual Time
Civil Twilight
Nautical Twilight
Astronomical Twilight
Moon
Length of Visible Light
Length of Day
Tomorrow will be .
, % of the Moon is Illuminated

Today's Extremes

State Highs State Lows

Community

WunderPhotos

Upload Photos

1,790,048 photos uploaded!

WunderBlogs® & News

Nearby

Air Quality

  Air Quality AQ Index Pollutant
Not available.

Snow Depth

Station Depth Elevation

Earthquake Activity

City Distance Mag. Time & Date
Minimum magnitude displayed is 2.5.

Coastal Water Temperatures

Place Temperature

Nearby Weather Stations